Leandro N. Alem, Argentina
Current Conditions -  °F | °C
As of 2:00 PM on Saturday 20 Dec 2014 (Local Time) from SGEN Reporting Station
Broken Clouds Broken Clouds  
Wind Chill: 95°   Ceiling: 3000
Heat Index: 107°   Visibility: 6mi
Dew Point: 75°   Wind: 17mph
Humidity: 53%   Direction: 360°N
Pressure: 29.59"   Gusts: NA
Location:  27.6°S, 55.32°W
Report Text: SGEN 201700Z 36015KT 9999 BKN030 35/24 Q1002
Loading
Personal Weather Stations






























Interactive Weather Map New forecast layout! Learn more

10-Day Weather Forecast

Advertisements
Track Severe Weather on mobile